Terminal Aerodrome Forecast
Issued by NWS

Home | Current Version | Previous Version | Text Only | Print | Product List | Glossary On
Versions: 1 2 3 4 5 6 7 8 9 10 11 12 13 14 15 16 17 18 19 20 21 22
000
FTUS46 KOTX 231145 CCA
TAFSFF
TAF COR
KSFF 231145Z 2312/2412 00000KT P6SM VCSH BKN070 WS010/23028KT
     FM231400 20008KT P6SM -RA SCT028 OVC040
     FM231800 20010KT P6SM VCSH FEW028 BKN040 OVC070
      TEMPO 2319/2321 -SHRA
     FM232200 22013G19KT P6SM VCTS SCT020 BKN040CB OVC060
      TEMPO 2322/2324 24016G28KT 6SM -TSRA BKN030CB OVC050
     FM240100 23008KT P6SM BKN050
     FM241000 23004KT P6SM SCT016 BKN080=

USA.gov is the U.S. government's official web portal to all federal, state and local government web resources and services.